Time;durP1;ratioP1;P1;durP2;ratioP2;P2;SDS_P1;SDS_P2;PMS_P1;PMS_P2;Temp;Humidity;BMP_temperature;BMP_pressure;BME280_temperature;BME280_humidity;BME280_pressure;Samples;Min_cycle;Max_cycle;Signal;HPM_P1;HPM_P2
2022/02/16 00:01:56;;;;;;;0.45;0.20;;;;;;;;;;4131728;28;20116;-59
2022/02/16 00:03:57;;;;;;;1.02;0.50;;;;;;;;;;4132591;28;20178;-59
2022/02/16 00:05:58;;;;;;;0.35;0.32;;;;;;;;;;4132266;28;20058;-59
2022/02/16 00:07:59;;;;;;;0.55;0.25;;;;;;;;;;4132052;28;20454;-60
2022/02/16 00:10:01;;;;;;;0.85;0.20;;;;;;;;;;4132186;28;20058;-59
2022/02/16 00:12:02;;;;;;;0.30;0.15;;;;;;;;;;4132130;28;20062;-59
2022/02/16 00:14:03;;;;;;;1.13;0.38;;;;;;;;;;4132240;28;20065;-59
2022/02/16 00:16:08;;;;;;;0.60;0.25;;;;;;;;;;4131954;28;20061;-59
2022/02/16 00:18:10;;;;;;;1.00;0.30;;;;;;;;;;4131597;28;20066;-59
2022/02/16 00:20:12;;;;;;;0.20;0.10;;;;;;;;;;4130845;28;20058;-59
2022/02/16 00:22:13;;;;;;;1.05;0.30;;;;;;;;;;4131928;28;20054;-60
2022/02/16 00:24:14;;;;;;;0.73;0.32;;;;;;;;;;4131847;28;20836;-59
2022/02/16 00:26:15;;;;;;;0.70;0.45;;;;;;;;;;4131724;28;20062;-60
2022/02/16 00:28:17;;;;;;;1.23;0.40;;;;;;;;;;4114352;28;20101;-59
2022/02/16 00:30:19;;;;;;;1.10;0.30;;;;;;;;;;4132042;28;20065;-60
2022/02/16 00:32:21;;;;;;;1.20;0.52;;;;;;;;;;4113843;28;20051;-59
2022/02/16 00:34:22;;;;;;;0.77;0.35;;;;;;;;;;4131876;28;20058;-60
2022/02/16 00:36:23;;;;;;;1.40;0.43;;;;;;;;;;4131400;28;20112;-60
2022/02/16 00:38:24;;;;;;;0.20;0.20;;;;;;;;;;4131782;28;20077;-60
2022/02/16 00:40:26;;;;;;;2.65;0.60;;;;;;;;;;4146625;28;20053;-56
2022/02/16 00:42:28;;;;;;;0.80;0.20;;;;;;;;;;4131975;28;20057;-60
2022/02/16 00:44:29;;;;;;;0.22;0.20;;;;;;;;;;4129829;28;20062;-59
2022/02/16 00:46:31;;;;;;;0.68;0.28;;;;;;;;;;4131153;28;20066;-58
2022/02/16 00:48:32;;;;;;;0.88;0.25;;;;;;;;;;4131334;28;20212;-60
2022/02/16 00:50:34;;;;;;;0.95;0.38;;;;;;;;;;4131281;28;20065;-59
2022/02/16 00:52:35;;;;;;;0.95;0.30;;;;;;;;;;4146281;28;20411;-60
2022/02/16 00:54:38;;;;;;;1.00;0.10;;;;;;;;;;4130091;28;20421;-59
2022/02/16 00:56:42;;;;;;;1.10;0.30;;;;;;;;;;4131164;28;20399;-59
2022/02/16 00:58:43;;;;;;;0.75;0.22;;;;;;;;;;4130103;28;20518;-60
2022/02/16 01:00:45;;;;;;;1.02;0.30;;;;;;;;;;4130097;28;20054;-59
2022/02/16 01:02:46;;;;;;;0.75;0.35;;;;;;;;;;4127132;28;20061;-58
2022/02/16 01:04:47;;;;;;;0.68;0.45;;;;;;;;;;4145665;28;20085;-60
2022/02/16 01:06:48;;;;;;;0.65;0.20;;;;;;;;;;4129838;28;20105;-59
2022/02/16 01:08:50;;;;;;;1.13;0.30;;;;;;;;;;4130103;28;20051;-59
2022/02/16 01:10:51;;;;;;;0.90;0.20;;;;;;;;;;4146267;28;20097;-60
2022/02/16 01:12:54;;;;;;;0.30;0.10;;;;;;;;;;4129904;28;20073;-59
2022/02/16 01:14:56;;;;;;;0.85;0.25;;;;;;;;;;4129820;28;20061;-58
2022/02/16 01:16:57;;;;;;;0.50;0.20;;;;;;;;;;4146842;28;20058;-60
2022/02/16 01:19:19;;;;;;;0.95;0.28;;;;;;;;;;4147337;28;20062;-59
2022/02/16 01:21:20;;;;;;;0.45;0.30;;;;;;;;;;4146152;28;20117;-59
2022/02/16 01:23:23;;;;;;;0.88;0.43;;;;;;;;;;4129952;28;20077;-59
2022/02/16 01:25:25;;;;;;;0.95;0.35;;;;;;;;;;4146013;28;20060;-59
2022/02/16 01:27:27;;;;;;;0.30;0.20;;;;;;;;;;4129530;28;20062;-59
2022/02/16 01:29:31;;;;;;;0.90;0.35;;;;;;;;;;4145916;28;20108;-58
2022/02/16 01:31:42;;;;;;;0.68;0.32;;;;;;;;;;4129491;28;20116;-61
2022/02/16 01:33:44;;;;;;;0.38;0.20;;;;;;;;;;4129656;28;20047;-60
2022/02/16 01:35:45;;;;;;;0.40;0.20;;;;;;;;;;4122022;28;20522;-60
2022/02/16 01:37:46;;;;;;;0.52;0.28;;;;;;;;;;4145930;28;20100;-59
2022/02/16 01:39:47;;;;;;;0.82;0.20;;;;;;;;;;4129640;28;20065;-58
2022/02/16 01:41:52;;;;;;;1.30;0.30;;;;;;;;;;4129602;28;20069;-60
2022/02/16 01:43:56;;;;;;;0.63;0.10;;;;;;;;;;4129524;28;20256;-59
2022/02/16 01:45:57;;;;;;;0.65;0.20;;;;;;;;;;4129408;28;20532;-60
2022/02/16 01:47:59;;;;;;;1.13;0.20;;;;;;;;;;4145173;28;20088;-59
2022/02/16 01:50:01;;;;;;;0.30;0.10;;;;;;;;;;4129377;28;20495;-59
2022/02/16 01:52:05;;;;;;;2.88;0.40;;;;;;;;;;4129309;28;20474;-59
2022/02/16 01:54:09;;;;;;;0.32;0.20;;;;;;;;;;4129840;28;20058;-61
2022/02/16 01:56:12;;;;;;;0.40;0.20;;;;;;;;;;4129341;28;20065;-61
2022/02/16 01:58:18;;;;;;;0.57;0.25;;;;;;;;;;4130723;28;20057;-59
2022/02/16 02:00:58;;;;;;;0.52;0.22;;;;;;;;;;4107517;28;20658;-59
2022/02/16 02:03:00;;;;;;;0.25;0.20;;;;;;;;;;4095874;29;20087;-60
2022/02/16 02:05:07;;;;;;;0.88;0.38;;;;;;;;;;4080723;29;20493;-60
2022/02/16 02:07:08;;;;;;;0.50;0.10;;;;;;;;;;4129133;28;20066;-59
2022/02/16 02:09:10;;;;;;;0.38;0.13;;;;;;;;;;4129214;28;20418;-61
2022/02/16 02:11:12;;;;;;;0.43;0.20;;;;;;;;;;4129338;28;20065;-61
2022/02/16 02:13:27;;;;;;;0.30;0.20;;;;;;;;;;4129178;28;20050;-61
2022/02/16 02:15:52;;;;;;;0.20;0.20;;;;;;;;;;4134552;28;20104;-61
2022/02/16 02:18:02;;;;;;;;;;;;;;;;;;4134720;28;20062;-61
2022/02/16 02:20:03;;;;;;;1.15;0.30;;;;;;;;;;4134491;28;19995;-61
2022/02/16 02:22:05;;;;;;;0.85;0.30;;;;;;;;;;4135558;28;20552;-61
2022/02/16 02:24:06;;;;;;;0.63;0.30;;;;;;;;;;4134548;28;20054;-61
2022/02/16 02:26:07;;;;;;;0.50;0.28;;;;;;;;;;4143259;28;20111;-61
2022/02/16 02:28:08;;;;;;;0.63;0.32;;;;;;;;;;4134650;28;20061;-61
2022/02/16 02:30:11;;;;;;;0.68;0.20;;;;;;;;;;4151770;28;20099;-61
2022/02/16 02:32:16;;;;;;;0.40;0.40;;;;;;;;;;4151317;28;20100;-62
2022/02/16 02:34:17;;;;;;;0.93;0.25;;;;;;;;;;4134715;28;20109;-60
2022/02/16 02:36:19;;;;;;;0.43;0.10;;;;;;;;;;4138530;28;20093;-62
2022/02/16 02:38:20;;;;;;;0.68;0.25;;;;;;;;;;4118506;28;20114;-61
2022/02/16 02:40:21;;;;;;;0.20;0.20;;;;;;;;;;4134835;28;20112;-61
2022/02/16 02:42:23;;;;;;;0.60;0.20;;;;;;;;;;4135809;28;20055;-61
2022/02/16 02:44:24;;;;;;;1.23;0.50;;;;;;;;;;4118184;28;20410;-60
2022/02/16 02:46:26;;;;;;;1.10;0.30;;;;;;;;;;4118191;28;20058;-61
2022/02/16 02:48:32;;;;;;;0.40;0.20;;;;;;;;;;4118157;28;20490;-61
2022/02/16 02:50:33;;;;;;;0.38;0.20;;;;;;;;;;4135700;28;20093;-61
2022/02/16 02:52:38;;;;;;;0.68;0.25;;;;;;;;;;4118007;28;20494;-61
2022/02/16 02:54:41;;;;;;;0.47;0.20;;;;;;;;;;4118246;28;20070;-61
2022/02/16 02:56:43;;;;;;;0.20;0.10;;;;;;;;;;4135379;28;20054;-61
2022/02/16 02:58:44;;;;;;;0.60;0.40;;;;;;;;;;4118180;28;20051;-61
2022/02/16 03:00:45;;;;;;;0.65;0.20;;;;;;;;;;4118306;28;20113;-61
2022/02/16 03:02:47;;;;;;;1.00;0.35;;;;;;;;;;4133843;28;20054;-61
2022/02/16 03:04:48;;;;;;;0.50;0.20;;;;;;;;;;4135489;28;20564;-60
2022/02/16 03:06:49;;;;;;;0.32;0.20;;;;;;;;;;4118154;28;20089;-61
2022/02/16 03:08:50;;;;;;;0.35;0.20;;;;;;;;;;4118072;28;20388;-60
2022/02/16 03:10:52;;;;;;;0.80;0.20;;;;;;;;;;4135399;28;20336;-61
2022/02/16 03:12:53;;;;;;;0.20;0.13;;;;;;;;;;4117729;28;20157;-61
2022/02/16 03:14:56;;;;;;;0.43;0.20;;;;;;;;;;4117876;28;20529;-61
2022/02/16 03:16:58;;;;;;;0.50;0.30;;;;;;;;;;4117644;28;20106;-61
2022/02/16 03:18:59;;;;;;;0.73;0.40;;;;;;;;;;4118103;28;20150;-62
2022/02/16 03:21:01;;;;;;;0.40;0.20;;;;;;;;;;4126038;28;20113;-60
2022/02/16 03:23:02;;;;;;;0.45;0.25;;;;;;;;;;4117816;28;20055;-61
2022/02/16 03:25:04;;;;;;;0.85;0.28;;;;;;;;;;4151360;28;20077;-61
2022/02/16 03:27:06;;;;;;;0.22;0.15;;;;;;;;;;4146720;28;20066;-60
2022/02/16 03:29:34;;;;;;;0.85;0.30;;;;;;;;;;4145309;28;20057;-61
2022/02/16 03:31:35;;;;;;;0.47;0.20;;;;;;;;;;4131130;28;20062;-60
2022/02/16 03:33:39;;;;;;;0.40;0.20;;;;;;;;;;4131656;28;20050;-61
2022/02/16 03:35:41;;;;;;;0.82;0.30;;;;;;;;;;4142126;28;20058;-60
2022/02/16 03:37:42;;;;;;;0.73;0.32;;;;;;;;;;4131400;28;20062;-62
2022/02/16 03:39:45;;;;;;;0.25;0.13;;;;;;;;;;4115581;28;20244;-61
2022/02/16 03:41:46;;;;;;;0.20;0.10;;;;;;;;;;4131489;28;20058;-61
2022/02/16 03:43:47;;;;;;;0.40;0.25;;;;;;;;;;4131216;28;20526;-59
2022/02/16 03:45:50;;;;;;;0.43;0.10;;;;;;;;;;4115428;28;20131;-61
2022/02/16 03:47:52;;;;;;;0.75;0.28;;;;;;;;;;4114682;28;20063;-61
2022/02/16 03:49:53;;;;;;;0.57;0.20;;;;;;;;;;4132738;28;20062;-61
2022/02/16 03:51:54;;;;;;;0.40;0.22;;;;;;;;;;4131030;28;20470;-61
2022/02/16 03:53:55;;;;;;;0.30;0.20;;;;;;;;;;4132204;28;20100;-61
2022/02/16 03:55:56;;;;;;;0.57;0.10;;;;;;;;;;4114952;28;20058;-61
2022/02/16 03:57:57;;;;;;;0.55;0.10;;;;;;;;;;4148156;28;20058;-61
2022/02/16 04:00:00;;;;;;;0.10;0.10;;;;;;;;;;4147249;28;20108;-61
2022/02/16 04:02:15;;;;;;;0.60;0.20;;;;;;;;;;4147951;28;20058;-60
2022/02/16 04:04:17;;;;;;;0.40;0.20;;;;;;;;;;4131054;28;20514;-60
2022/02/16 04:06:18;;;;;;;0.73;0.30;;;;;;;;;;4131190;28;20104;-60
2022/02/16 04:08:20;;;;;;;0.38;0.22;;;;;;;;;;4114930;28;20054;-61
2022/02/16 04:10:22;;;;;;;0.77;0.50;;;;;;;;;;4130887;28;20105;-61
2022/02/16 04:12:23;;;;;;;0.70;0.20;;;;;;;;;;4148280;28;20069;-61
2022/02/16 04:14:24;;;;;;;0.32;0.20;;;;;;;;;;4146938;28;20057;-61
2022/02/16 04:16:25;;;;;;;0.45;0.15;;;;;;;;;;4130981;28;20498;-62
2022/02/16 04:18:27;;;;;;;0.60;0.17;;;;;;;;;;4130648;28;20058;-60
2022/02/16 04:20:28;;;;;;;0.65;0.20;;;;;;;;;;4147263;28;20172;-61
2022/02/16 04:22:30;;;;;;;1.10;0.15;;;;;;;;;;4148246;28;20112;-61
2022/02/16 04:24:31;;;;;;;0.85;0.20;;;;;;;;;;4130742;28;20490;-62
2022/02/16 04:26:32;;;;;;;0.82;0.10;;;;;;;;;;4146672;28;20429;-60
2022/02/16 04:28:34;;;;;;;0.80;0.32;;;;;;;;;;4147984;28;20108;-61
2022/02/16 04:30:36;;;;;;;0.52;0.25;;;;;;;;;;4146806;28;20054;-61
2022/02/16 04:32:39;;;;;;;0.40;0.20;;;;;;;;;;4130205;28;20101;-60
2022/02/16 04:34:40;;;;;;;0.75;0.25;;;;;;;;;;4130754;28;20097;-61
2022/02/16 04:36:41;;;;;;;0.45;0.25;;;;;;;;;;4132720;28;20085;-61
2022/02/16 04:38:42;;;;;;;0.40;0.20;;;;;;;;;;4130826;28;20061;-60
2022/02/16 04:40:44;;;;;;;0.55;0.20;;;;;;;;;;4131801;28;20054;-61
2022/02/16 04:42:45;;;;;;;0.20;0.10;;;;;;;;;;4114396;28;20059;-62
2022/02/16 04:44:46;;;;;;;0.68;0.20;;;;;;;;;;4131657;28;20058;-61
2022/02/16 04:46:47;;;;;;;0.20;0.17;;;;;;;;;;4129822;28;20062;-60
2022/02/16 04:48:50;;;;;;;1.50;0.20;;;;;;;;;;4114525;28;20059;-61
2022/02/16 04:50:51;;;;;;;0.65;0.20;;;;;;;;;;4114350;28;20055;-61
2022/02/16 04:52:55;;;;;;;0.82;0.20;;;;;;;;;;4130065;28;20085;-61
2022/02/16 04:55:08;;;;;;;0.15;0.13;;;;;;;;;;4114194;28;20055;-61
2022/02/16 04:57:10;;;;;;;0.22;0.10;;;;;;;;;;4113897;28;20054;-61
2022/02/16 04:59:23;;;;;;;0.40;0.28;;;;;;;;;;4130257;28;20113;-61
2022/02/16 05:01:24;;;;;;;0.68;0.38;;;;;;;;;;4130021;28;20050;-61
2022/02/16 05:03:30;;;;;;;0.30;0.20;;;;;;;;;;4113807;28;20106;-62
2022/02/16 05:05:32;;;;;;;0.55;0.20;;;;;;;;;;4130145;28;20058;-62
2022/02/16 05:07:34;;;;;;;0.63;0.20;;;;;;;;;;4129870;28;20058;-61
2022/02/16 05:09:35;;;;;;;0.40;0.20;;;;;;;;;;4129990;28;20494;-61
2022/02/16 05:11:37;;;;;;;0.00;0.00;;;;;;;;;;4113872;28;20055;-61
2022/02/16 05:13:42;;;;;;;0.43;0.20;;;;;;;;;;4098161;29;20052;-61
2022/02/16 05:15:44;;;;;;;0.68;0.20;;;;;;;;;;4130136;28;20062;-61
2022/02/16 05:17:45;;;;;;;0.47;0.30;;;;;;;;;;4129377;28;20106;-61
2022/02/16 05:20:16;;;;;;;0.70;0.22;;;;;;;;;;4120171;28;20058;-61
2022/02/16 05:22:17;;;;;;;0.25;0.13;;;;;;;;;;4129782;28;20062;-61
2022/02/16 05:24:23;;;;;;;0.20;0.20;;;;;;;;;;4113538;28;20065;-60
2022/02/16 05:26:25;;;;;;;0.57;0.10;;;;;;;;;;4129603;28;20054;-61
2022/02/16 05:28:27;;;;;;;0.30;0.10;;;;;;;;;;4141521;28;20058;-61
2022/02/16 05:30:28;;;;;;;1.23;0.32;;;;;;;;;;4129596;28;20112;-59
2022/02/16 05:32:31;;;;;;;0.35;0.20;;;;;;;;;;4128962;28;20069;-61
2022/02/16 05:34:32;;;;;;;0.85;0.28;;;;;;;;;;4145818;28;20494;-60
2022/02/16 05:36:34;;;;;;;0.93;0.55;;;;;;;;;;4129824;28;20062;-61
2022/02/16 05:38:35;;;;;;;0.82;0.38;;;;;;;;;;4145786;28;20058;-61
2022/02/16 05:40:36;;;;;;;0.52;0.20;;;;;;;;;;4145658;28;20054;-61
2022/02/16 05:42:38;;;;;;;0.30;0.15;;;;;;;;;;4145736;28;20053;-61
2022/02/16 05:44:39;;;;;;;0.25;0.10;;;;;;;;;;4146984;28;20057;-61
2022/02/16 05:46:41;;;;;;;0.20;0.10;;;;;;;;;;4129103;28;20116;-61
2022/02/16 05:48:42;;;;;;;0.20;0.20;;;;;;;;;;4129059;28;20141;-61
2022/02/16 05:50:43;;;;;;;0.45;0.17;;;;;;;;;;4146515;28;20061;-61
2022/02/16 05:52:45;;;;;;;1.20;0.30;;;;;;;;;;4146372;28;20181;-61
2022/02/16 05:54:46;;;;;;;0.20;0.15;;;;;;;;;;4145338;28;20084;-61
2022/02/16 05:56:48;;;;;;;0.10;0.10;;;;;;;;;;4129125;28;20116;-60
2022/02/16 05:58:52;;;;;;;0.25;0.13;;;;;;;;;;4145409;28;20053;-60
2022/02/16 06:00:54;;;;;;;0.75;0.20;;;;;;;;;;4113872;28;20063;-60
2022/02/16 06:03:17;;;;;;;0.95;0.15;;;;;;;;;;4126354;28;20474;-61
2022/02/16 06:05:18;;;;;;;0.63;0.22;;;;;;;;;;4110815;28;20062;-60
2022/02/16 06:07:21;;;;;;;0.28;0.10;;;;;;;;;;4143006;28;20066;-60
2022/02/16 06:09:22;;;;;;;0.55;0.20;;;;;;;;;;4111152;28;20062;-61
2022/02/16 06:11:23;;;;;;;0.85;0.20;;;;;;;;;;4127173;28;20106;-61
2022/02/16 06:13:28;;;;;;;0.70;0.20;;;;;;;;;;4110408;28;20051;-61
2022/02/16 06:15:30;;;;;;;0.40;0.28;;;;;;;;;;4110764;28;20113;-61
2022/02/16 06:17:32;;;;;;;0.22;0.20;;;;;;;;;;4110247;28;20063;-61
2022/02/16 06:19:33;;;;;;;0.20;0.20;;;;;;;;;;4143341;28;20093;-61
2022/02/16 06:21:34;;;;;;;0.38;0.20;;;;;;;;;;4112196;28;20054;-60
2022/02/16 06:23:36;;;;;;;0.30;0.20;;;;;;;;;;4111924;28;20062;-61
2022/02/16 06:25:37;;;;;;;0.35;0.30;;;;;;;;;;4110308;28;20407;-59
2022/02/16 06:27:39;;;;;;;0.57;0.20;;;;;;;;;;4126833;28;20428;-60
2022/02/16 06:29:40;;;;;;;0.80;0.30;;;;;;;;;;4113153;28;20117;-60
2022/02/16 06:32:07;;;;;;;0.38;0.22;;;;;;;;;;4142437;28;20492;-61
2022/02/16 06:34:08;;;;;;;0.50;0.20;;;;;;;;;;4126010;28;20105;-58
2022/02/16 06:36:09;;;;;;;1.73;0.20;;;;;;;;;;4126220;28;20378;-61
2022/02/16 06:38:12;;;;;;;0.40;0.30;;;;;;;;;;4126571;28;20132;-60
2022/02/16 06:40:14;;;;;;;0.30;0.20;;;;;;;;;;4126930;28;20066;-61
2022/02/16 06:42:19;;;;;;;0.68;0.40;;;;;;;;;;4127007;28;20059;-61
2022/02/16 06:44:21;;;;;;;0.55;0.22;;;;;;;;;;4143072;28;20054;-61
2022/02/16 06:46:23;;;;;;;0.40;0.30;;;;;;;;;;4126547;28;20101;-61
2022/02/16 06:48:24;;;;;;;0.70;0.20;;;;;;;;;;4142209;28;20080;-60
2022/02/16 06:50:25;;;;;;;0.60;0.28;;;;;;;;;;4144055;28;20062;-59
2022/02/16 06:52:30;;;;;;;0.63;0.32;;;;;;;;;;4126271;28;20054;-59
2022/02/16 06:54:31;;;;;;;0.30;0.20;;;;;;;;;;4144292;28;20072;-64
2022/02/16 06:56:33;;;;;;;0.30;0.20;;;;;;;;;;4126603;28;20117;-61
2022/02/16 06:59:00;;;;;;;0.20;0.20;;;;;;;;;;4141876;28;20075;-61
2022/02/16 07:01:02;;;;;;;1.55;0.35;;;;;;;;;;4142632;28;20112;-59
2022/02/16 07:03:03;;;;;;;0.70;0.30;;;;;;;;;;4129193;28;20059;-61
2022/02/16 07:05:12;;;;;;;0.73;0.35;;;;;;;;;;4129623;28;20426;-59
2022/02/16 07:07:14;;;;;;;2.40;0.50;;;;;;;;;;4129363;28;20212;-61
2022/02/16 07:09:15;;;;;;;0.20;0.20;;;;;;;;;;4129286;28;20073;-60
2022/02/16 07:11:17;;;;;;;0.60;0.20;;;;;;;;;;4145708;28;20113;-61
2022/02/16 07:13:19;;;;;;;0.25;0.20;;;;;;;;;;4128718;28;20050;-60
2022/02/16 07:15:20;;;;;;;0.43;0.20;;;;;;;;;;4139202;28;20657;-58
2022/02/16 07:17:26;;;;;;;0.30;0.30;;;;;;;;;;4121021;28;20093;-60
2022/02/16 07:19:28;;;;;;;0.20;0.20;;;;;;;;;;4117870;28;20062;-61
2022/02/16 07:21:48;;;;;;;1.73;0.30;;;;;;;;;;4108028;28;20050;-61
2022/02/16 07:23:52;;;;;;;0.40;0.20;;;;;;;;;;4123686;28;20564;-60
2022/02/16 07:25:53;;;;;;;0.47;0.20;;;;;;;;;;4109850;28;20522;-61
2022/02/16 07:28:00;;;;;;;0.82;0.32;;;;;;;;;;4119709;28;20564;-61
2022/02/16 07:30:06;;;;;;;0.45;0.30;;;;;;;;;;4106565;28;20058;-60
2022/02/16 07:32:07;;;;;;;1.55;0.32;;;;;;;;;;4097383;28;20085;-61
2022/02/16 07:34:09;;;;;;;0.93;0.30;;;;;;;;;;4101454;28;20101;-59
2022/02/16 07:36:11;;;;;;;1.77;0.30;;;;;;;;;;4099260;28;20145;-59
2022/02/16 07:38:14;;;;;;;0.15;0.08;;;;;;;;;;4113412;28;21338;-59
2022/02/16 07:40:15;;;;;;;2.45;0.35;;;;;;;;;;4116598;28;20485;-58
2022/02/16 07:42:17;;;;;;;0.75;0.20;;;;;;;;;;4112375;28;20188;-59
2022/02/16 07:44:27;;;;;;;1.05;0.30;;;;;;;;;;4122958;28;20049;-58
2022/02/16 07:46:33;;;;;;;0.93;0.45;;;;;;;;;;4092025;28;20066;-59
2022/02/16 07:48:34;;;;;;;0.30;0.30;;;;;;;;;;4120046;28;20587;-58
2022/02/16 07:50:47;;;;;;;0.35;0.20;;;;;;;;;;4096739;28;20051;-59
2022/02/16 07:53:09;;;;;;;0.50;0.20;;;;;;;;;;4111697;28;20460;-58
2022/02/16 07:55:15;;;;;;;0.28;0.20;;;;;;;;;;4094591;28;20055;-58
2022/02/16 07:57:16;;;;;;;0.35;0.20;;;;;;;;;;4088042;28;20058;-58
2022/02/16 07:59:18;;;;;;;0.55;0.20;;;;;;;;;;4101812;28;20141;-58
2022/02/16 08:01:19;;;;;;;1.27;0.25;;;;;;;;;;4091262;28;20054;-59
2022/02/16 08:03:20;;;;;;;1.80;0.20;;;;;;;;;;4102482;28;20051;-58
2022/02/16 08:05:24;;;;;;;1.48;0.35;;;;;;;;;;4088843;28;20182;-59
2022/02/16 08:07:25;;;;;;;0.45;0.20;;;;;;;;;;4099762;28;20063;-59
2022/02/16 08:09:26;;;;;;;0.73;0.20;;;;;;;;;;4104731;28;20054;-58
2022/02/16 08:11:27;;;;;;;1.63;0.20;;;;;;;;;;4113868;28;20080;-58
2022/02/16 08:13:28;;;;;;;0.38;0.30;;;;;;;;;;4106054;28;20097;-59
2022/02/16 08:15:47;;;;;;;0.60;0.22;;;;;;;;;;4119524;28;20058;-58
2022/02/16 08:17:48;;;;;;;0.30;0.20;;;;;;;;;;4096465;28;20134;-59
2022/02/16 08:19:50;;;;;;;2.42;0.28;;;;;;;;;;4113137;28;20059;-55
2022/02/16 08:21:55;;;;;;;0.28;0.20;;;;;;;;;;4112352;28;20109;-58
2022/02/16 08:23:57;;;;;;;0.20;0.20;;;;;;;;;;4097747;28;20054;-58
2022/02/16 08:25:58;;;;;;;0.47;0.10;;;;;;;;;;4117013;28;21397;-58
2022/02/16 08:28:01;;;;;;;0.25;0.25;;;;;;;;;;4079041;28;20070;-57
2022/02/16 08:30:04;;;;;;;0.52;0.20;;;;;;;;;;4095359;28;20058;-60
2022/02/16 08:32:07;;;;;;;2.40;0.20;;;;;;;;;;4105251;28;20055;-61
2022/02/16 08:34:18;;;;;;;5.18;0.38;;;;;;;;;;4077999;28;20054;-58
2022/02/16 08:36:27;;;;;;;0.20;0.20;;;;;;;;;;4090288;28;20094;-56
2022/02/16 08:38:28;;;;;;;0.75;0.20;;;;;;;;;;4103577;28;20189;-60
2022/02/16 08:40:29;;;;;;;0.95;0.22;;;;;;;;;;4115768;28;20580;-60
2022/02/16 08:42:31;;;;;;;0.47;0.30;;;;;;;;;;4113345;28;20104;-59
2022/02/16 08:44:32;;;;;;;0.80;0.30;;;;;;;;;;4112366;28;20057;-59
2022/02/16 08:46:33;;;;;;;0.80;0.30;;;;;;;;;;4096573;28;20153;-58
2022/02/16 08:48:34;;;;;;;0.50;0.30;;;;;;;;;;4115183;28;20065;-60
2022/02/16 08:50:35;;;;;;;1.67;0.20;;;;;;;;;;4113810;28;20070;-59
2022/02/16 08:52:36;;;;;;;0.22;0.20;;;;;;;;;;4112474;28;20514;-57
2022/02/16 08:54:37;;;;;;;1.65;0.10;;;;;;;;;;4113875;28;20058;-57
2022/02/16 08:56:39;;;;;;;0.60;0.20;;;;;;;;;;4121316;28;20525;-60
2022/02/16 08:58:40;;;;;;;0.25;0.20;;;;;;;;;;4112745;28;20054;-59
2022/02/16 09:00:42;;;;;;;0.30;0.30;;;;;;;;;;4082812;28;20066;-61
2022/02/16 09:02:43;;;;;;;0.40;0.30;;;;;;;;;;4111950;28;20054;-59
2022/02/16 09:04:44;;;;;;;0.40;0.15;;;;;;;;;;4117300;28;20062;-60
2022/02/16 09:07:27;;;;;;;1.30;0.30;;;;;;;;;;4105545;28;20120;-59
2022/02/16 09:09:06;;;;;;;0.55;0.20;;;;;;;;;;4119325;28;20073;-60
2022/02/16 09:11:07;;;;;;;0.30;0.20;;;;;;;;;;4111108;28;20497;-60
2022/02/16 09:13:08;;;;;;;0.82;0.17;;;;;;;;;;4117733;28;20054;-56
2022/02/16 09:15:09;;;;;;;1.98;0.20;;;;;;;;;;4114702;28;20517;-60
2022/02/16 09:17:10;;;;;;;0.20;0.20;;;;;;;;;;4120692;28;20050;-60
2022/02/16 09:19:11;;;;;;;0.10;0.10;;;;;;;;;;4120660;28;20112;-59
2022/02/16 09:21:13;;;;;;;0.17;0.10;;;;;;;;;;4120816;28;20069;-60
2022/02/16 09:23:15;;;;;;;0.43;0.10;;;;;;;;;;4117646;28;20140;-58
2022/02/16 09:25:16;;;;;;;0.50;0.30;;;;;;;;;;4100952;28;20170;-59
2022/02/16 09:27:19;;;;;;;0.20;0.20;;;;;;;;;;4103110;28;20070;-59
2022/02/16 09:29:21;;;;;;;0.30;0.20;;;;;;;;;;4100537;28;20748;-59
2022/02/16 09:31:23;;;;;;;0.20;0.20;;;;;;;;;;4082134;28;20059;-59
2022/02/16 09:33:25;;;;;;;0.20;0.10;;;;;;;;;;4096758;28;20106;-58
2022/02/16 09:35:26;;;;;;;0.10;0.10;;;;;;;;;;4098839;28;20102;-58
2022/02/16 09:37:27;;;;;;;0.20;0.20;;;;;;;;;;4093428;28;20069;-58
2022/02/16 09:39:29;;;;;;;0.90;0.20;;;;;;;;;;4093696;28;20235;-58
2022/02/16 09:41:30;;;;;;;0.40;0.20;;;;;;;;;;4098485;28;20125;-56
2022/02/16 09:43:31;;;;;;;0.32;0.20;;;;;;;;;;4095973;28;20052;-55
2022/02/16 09:45:33;;;;;;;0.10;0.10;;;;;;;;;;4097422;28;20082;-56
2022/02/16 09:47:34;;;;;;;0.45;0.22;;;;;;;;;;4092532;28;20117;-58
2022/02/16 09:49:38;;;;;;;0.32;0.15;;;;;;;;;;4095766;28;20083;-59
2022/02/16 09:51:39;;;;;;;0.77;0.20;;;;;;;;;;4100588;28;20075;-54
2022/02/16 09:53:40;;;;;;;1.23;0.15;;;;;;;;;;4095672;28;20063;-58
2022/02/16 09:55:42;;;;;;;1.27;0.30;;;;;;;;;;4097066;28;20085;-58
2022/02/16 09:57:43;;;;;;;0.40;0.10;;;;;;;;;;4078767;28;20150;-58
2022/02/16 09:59:44;;;;;;;0.88;0.30;;;;;;;;;;4094607;28;20113;-57
2022/02/16 10:02:12;;;;;;;1.48;0.30;;;;;;;;;;4092722;28;20134;-59
2022/02/16 10:04:13;;;;;;;0.90;0.30;;;;;;;;;;4096287;28;20121;-58
2022/02/16 10:06:40;;;;;;;0.35;0.30;;;;;;;;;;4104446;28;20477;-60
2022/02/16 10:08:43;;;;;;;0.40;0.20;;;;;;;;;;4096731;28;20501;-57
2022/02/16 10:10:59;;;;;;;1.55;0.10;;;;;;;;;;4098783;28;20047;-59
2022/02/16 10:13:02;;;;;;;0.65;0.17;;;;;;;;;;4101854;28;20055;-59
2022/02/16 10:15:03;;;;;;;0.28;0.20;;;;;;;;;;4101321;28;20698;-59
2022/02/16 10:17:20;;;;;;;0.45;0.20;;;;;;;;;;4100525;28;20059;-57
2022/02/16 10:19:21;;;;;;;0.85;0.10;;;;;;;;;;4095125;28;20066;-58
2022/02/16 10:21:22;;;;;;;0.30;0.17;;;;;;;;;;4099539;28;20059;-59
2022/02/16 10:23:40;;;;;;;0.63;0.28;;;;;;;;;;4097946;28;20121;-58
2022/02/16 10:25:49;;;;;;;0.25;0.10;;;;;;;;;;4102302;28;20055;-59
2022/02/16 10:28:09;;;;;;;0.22;0.10;;;;;;;;;;4099198;28;20054;-56
2022/02/16 10:30:11;;;;;;;;;;;;;;;;;;4101336;28;20082;-58
2022/02/16 10:32:32;;;;;;;0.47;0.20;;;;;;;;;;4113563;28;19968;-57
2022/02/16 10:34:49;;;;;;;1.10;0.30;;;;;;;;;;4103056;28;20086;-55
2022/02/16 10:36:51;;;;;;;0.57;0.25;;;;;;;;;;4090425;28;20062;-57
2022/02/16 10:38:57;;;;;;;0.10;0.10;;;;;;;;;;4098433;28;20436;-56
2022/02/16 10:41:00;;;;;;;0.55;0.10;;;;;;;;;;4105803;28;20062;-60
2022/02/16 10:43:01;;;;;;;0.40;0.20;;;;;;;;;;4090911;28;20452;-57
2022/02/16 10:45:11;;;;;;;0.17;0.17;;;;;;;;;;4108428;28;20078;-57
2022/02/16 10:47:12;;;;;;;;;;;;;;;;;;4108075;28;20065;-56
2022/02/16 10:49:16;;;;;;;0.45;0.20;;;;;;;;;;4107356;28;19980;-58
2022/02/16 10:51:19;;;;;;;0.95;0.20;;;;;;;;;;4111876;28;20169;-58
2022/02/16 10:53:26;;;;;;;0.32;0.20;;;;;;;;;;4109054;28;20046;-59
2022/02/16 10:55:48;;;;;;;0.40;0.20;;;;;;;;;;4109014;28;20114;-57
2022/02/16 10:57:49;;;;;;;0.30;0.10;;;;;;;;;;4104454;28;20194;-56
2022/02/16 10:59:51;;;;;;;0.32;0.20;;;;;;;;;;4106463;28;20503;-59
2022/02/16 11:01:52;;;;;;;0.45;0.20;;;;;;;;;;4103080;28;20125;-58
2022/02/16 11:03:55;;;;;;;0.50;0.20;;;;;;;;;;4109701;28;20055;-59
2022/02/16 11:05:58;;;;;;;0.43;0.10;;;;;;;;;;4099858;28;20065;-60
2022/02/16 11:08:00;;;;;;;0.20;0.10;;;;;;;;;;4108631;28;20197;-58
2022/02/16 11:10:03;;;;;;;0.10;0.10;;;;;;;;;;4106619;28;20097;-59
2022/02/16 11:12:04;;;;;;;0.40;0.30;;;;;;;;;;4108552;28;20113;-59
2022/02/16 11:14:05;;;;;;;1.85;0.20;;;;;;;;;;4109459;28;20042;-60
2022/02/16 11:16:07;;;;;;;0.22;0.13;;;;;;;;;;4108463;28;20518;-60
2022/02/16 11:18:11;;;;;;;0.63;0.22;;;;;;;;;;4090181;28;20070;-60
2022/02/16 11:20:18;;;;;;;0.28;0.17;;;;;;;;;;4107895;28;20451;-58
2022/02/16 11:22:19;;;;;;;1.95;0.20;;;;;;;;;;4107611;28;20085;-58
2022/02/16 11:24:31;;;;;;;0.22;0.20;;;;;;;;;;4100886;28;20055;-56
2022/02/16 11:26:41;;;;;;;0.10;0.00;;;;;;;;;;4104841;28;20226;-59
2022/02/16 11:28:42;;;;;;;0.20;0.20;;;;;;;;;;4103265;28;20059;-59
2022/02/16 11:30:46;;;;;;;0.40;0.30;;;;;;;;;;4112777;28;20058;-60
2022/02/16 11:32:47;;;;;;;0.40;0.20;;;;;;;;;;4107871;28;20399;-59
2022/02/16 11:35:11;;;;;;;0.35;0.20;;;;;;;;;;4108311;28;20063;-59
2022/02/16 11:37:12;;;;;;;0.40;0.20;;;;;;;;;;4103240;28;20081;-60
2022/02/16 11:39:47;;;;;;;0.20;0.20;;;;;;;;;;4103972;28;20490;-58
2022/02/16 11:41:54;;;;;;;0.65;0.30;;;;;;;;;;4106165;28;20055;-58
2022/02/16 11:44:02;;;;;;;0.50;0.38;;;;;;;;;;4107364;28;20055;-59
2022/02/16 11:46:03;;;;;;;0.40;0.20;;;;;;;;;;4108715;28;20407;-59
2022/02/16 11:48:06;;;;;;;0.25;0.10;;;;;;;;;;4104910;28;20050;-61
2022/02/16 11:50:10;;;;;;;0.98;0.40;;;;;;;;;;4103664;28;20067;-58
2022/02/16 11:52:34;;;;;;;0.22;0.20;;;;;;;;;;4106260;28;20062;-59
2022/02/16 11:54:43;;;;;;;0.65;0.13;;;;;;;;;;4100882;28;20066;-57
2022/02/16 11:56:44;;;;;;;1.48;0.20;;;;;;;;;;4108400;28;20707;-58
2022/02/16 11:59:11;;;;;;;0.38;0.20;;;;;;;;;;4103291;28;20077;-58
2022/02/16 12:01:17;;;;;;;1.90;0.15;;;;;;;;;;4094830;28;20551;-59
2022/02/16 12:03:20;;;;;;;0.25;0.22;;;;;;;;;;4095918;28;20164;-57
2022/02/16 12:05:51;;;;;;;0.45;0.30;;;;;;;;;;4106250;28;22171;-59
2022/02/16 12:08:11;;;;;;;1.52;0.40;;;;;;;;;;4101392;28;20105;-60
2022/02/16 12:10:19;;;;;;;1.02;0.30;;;;;;;;;;4101094;28;20130;-58
2022/02/16 12:12:20;;;;;;;0.10;0.10;;;;;;;;;;4100028;28;20319;-59
2022/02/16 12:14:21;;;;;;;0.85;0.40;;;;;;;;;;4097332;28;20070;-56
2022/02/16 12:16:24;;;;;;;0.65;0.15;;;;;;;;;;4106789;28;20129;-60
2022/02/16 12:18:26;;;;;;;1.00;0.20;;;;;;;;;;4098549;28;20094;-58
2022/02/16 12:20:27;;;;;;;0.30;0.30;;;;;;;;;;4103863;28;20105;-58
2022/02/16 12:22:28;;;;;;;0.65;0.20;;;;;;;;;;4095855;28;20492;-58
2022/02/16 12:24:29;;;;;;;2.42;0.20;;;;;;;;;;4098609;28;20063;-60